sensor_id;sensor_type;location;lat;lon;timestamp;P1;durP1;ratioP1;P2;durP2;ratioP2
12871;SDS011;6504;53.766;9.626;2023-08-30T00:02:20;2.57;;;2.37;;
12871;SDS011;6504;53.766;9.626;2023-08-30T00:04:48;2.30;;;2.10;;
12871;SDS011;6504;53.766;9.626;2023-08-30T00:07:18;2.10;;;1.90;;
12871;SDS011;6504;53.766;9.626;2023-08-30T00:09:46;2.97;;;2.77;;
12871;SDS011;6504;53.766;9.626;2023-08-30T00:12:14;4.30;;;3.97;;
12871;SDS011;6504;53.766;9.626;2023-08-30T00:14:42;4.33;;;4.00;;
12871;SDS011;6504;53.766;9.626;2023-08-30T00:17:10;4.30;;;3.50;;
12871;SDS011;6504;53.766;9.626;2023-08-30T00:19:38;3.87;;;3.57;;
12871;SDS011;6504;53.766;9.626;2023-08-30T00:22:06;3.50;;;3.20;;
12871;SDS011;6504;53.766;9.626;2023-08-30T00:24:36;3.83;;;3.53;;
12871;SDS011;6504;53.766;9.626;2023-08-30T00:27:04;3.80;;;3.50;;
12871;SDS011;6504;53.766;9.626;2023-08-30T00:29:32;4.87;;;4.00;;
12871;SDS011;6504;53.766;9.626;2023-08-30T00:32:00;3.73;;;3.43;;
12871;SDS011;6504;53.766;9.626;2023-08-30T00:34:28;4.00;;;3.70;;
12871;SDS011;6504;53.766;9.626;2023-08-30T00:36:56;4.10;;;3.80;;
12871;SDS011;6504;53.766;9.626;2023-08-30T00:39:24;3.47;;;3.20;;
12871;SDS011;6504;53.766;9.626;2023-08-30T00:41:54;3.90;;;3.60;;
12871;SDS011;6504;53.766;9.626;2023-08-30T00:44:22;3.40;;;3.10;;
12871;SDS011;6504;53.766;9.626;2023-08-30T00:46:50;3.50;;;3.20;;
12871;SDS011;6504;53.766;9.626;2023-08-30T00:49:18;3.50;;;3.20;;
12871;SDS011;6504;53.766;9.626;2023-08-30T00:51:46;4.07;;;2.90;;
12871;SDS011;6504;53.766;9.626;2023-08-30T00:54:14;4.07;;;3.77;;
12871;SDS011;6504;53.766;9.626;2023-08-30T00:56:43;3.10;;;2.90;;
12871;SDS011;6504;53.766;9.626;2023-08-30T00:59:14;2.90;;;2.70;;
12871;SDS011;6504;53.766;9.626;2023-08-30T01:01:42;3.90;;;3.60;;
12871;SDS011;6504;53.766;9.626;2023-08-30T01:04:12;3.40;;;3.10;;
12871;SDS011;6504;53.766;9.626;2023-08-30T01:06:40;3.50;;;3.20;;
12871;SDS011;6504;53.766;9.626;2023-08-30T01:09:09;3.10;;;2.80;;
12871;SDS011;6504;53.766;9.626;2023-08-30T01:11:39;3.70;;;3.40;;
12871;SDS011;6504;53.766;9.626;2023-08-30T01:14:15;3.03;;;2.83;;
12871;SDS011;6504;53.766;9.626;2023-08-30T01:16:48;3.70;;;3.40;;
12871;SDS011;6504;53.766;9.626;2023-08-30T01:19:21;3.77;;;3.47;;
12871;SDS011;6504;53.766;9.626;2023-08-30T01:22:00;3.13;;;2.93;;
12871;SDS011;6504;53.766;9.626;2023-08-30T01:24:37;3.37;;;2.90;;
12871;SDS011;6504;53.766;9.626;2023-08-30T01:27:13;2.90;;;2.70;;
12871;SDS011;6504;53.766;9.626;2023-08-30T01:29:43;2.53;;;2.33;;
12871;SDS011;6504;53.766;9.626;2023-08-30T01:32:13;2.10;;;1.80;;
12871;SDS011;6504;53.766;9.626;2023-08-30T01:34:42;2.17;;;1.93;;
12871;SDS011;6504;53.766;9.626;2023-08-30T01:37:13;2.20;;;2.00;;
12871;SDS011;6504;53.766;9.626;2023-08-30T01:39:42;2.87;;;2.50;;
12871;SDS011;6504;53.766;9.626;2023-08-30T01:42:11;2.63;;;2.43;;
12871;SDS011;6504;53.766;9.626;2023-08-30T01:44:41;3.27;;;2.97;;
12871;SDS011;6504;53.766;9.626;2023-08-30T01:47:11;3.57;;;3.20;;
12871;SDS011;6504;53.766;9.626;2023-08-30T01:49:39;4.20;;;3.80;;
12871;SDS011;6504;53.766;9.626;2023-08-30T01:52:08;4.87;;;4.47;;
12871;SDS011;6504;53.766;9.626;2023-08-30T01:54:37;4.60;;;4.20;;
12871;SDS011;6504;53.766;9.626;2023-08-30T01:57:08;4.73;;;4.20;;
12871;SDS011;6504;53.766;9.626;2023-08-30T01:59:37;4.80;;;4.30;;
12871;SDS011;6504;53.766;9.626;2023-08-30T02:02:05;5.17;;;4.77;;
12871;SDS011;6504;53.766;9.626;2023-08-30T02:04:33;4.73;;;4.33;;
12871;SDS011;6504;53.766;9.626;2023-08-30T02:07:02;4.57;;;4.17;;
12871;SDS011;6504;53.766;9.626;2023-08-30T02:09:33;4.37;;;4.07;;
12871;SDS011;6504;53.766;9.626;2023-08-30T02:12:07;4.63;;;4.33;;
12871;SDS011;6504;53.766;9.626;2023-08-30T02:14:42;4.73;;;4.33;;
12871;SDS011;6504;53.766;9.626;2023-08-30T02:17:12;4.93;;;4.47;;
12871;SDS011;6504;53.766;9.626;2023-08-30T02:19:41;5.00;;;4.40;;
12871;SDS011;6504;53.766;9.626;2023-08-30T02:22:10;4.50;;;4.10;;
12871;SDS011;6504;53.766;9.626;2023-08-30T02:24:39;4.27;;;3.90;;
12871;SDS011;6504;53.766;9.626;2023-08-30T02:27:07;4.63;;;4.30;;
12871;SDS011;6504;53.766;9.626;2023-08-30T02:29:35;4.63;;;4.20;;
12871;SDS011;6504;53.766;9.626;2023-08-30T02:32:04;4.90;;;4.40;;
12871;SDS011;6504;53.766;9.626;2023-08-30T02:34:33;4.60;;;4.20;;
12871;SDS011;6504;53.766;9.626;2023-08-30T02:37:02;4.80;;;4.40;;
12871;SDS011;6504;53.766;9.626;2023-08-30T02:39:30;4.53;;;4.13;;
12871;SDS011;6504;53.766;9.626;2023-08-30T02:41:58;4.87;;;4.37;;
12871;SDS011;6504;53.766;9.626;2023-08-30T02:44:26;4.80;;;4.40;;
12871;SDS011;6504;53.766;9.626;2023-08-30T02:46:54;5.60;;;5.13;;
12871;SDS011;6504;53.766;9.626;2023-08-30T02:49:23;6.00;;;5.50;;
12871;SDS011;6504;53.766;9.626;2023-08-30T02:51:51;7.10;;;6.43;;
12871;SDS011;6504;53.766;9.626;2023-08-30T02:54:19;7.63;;;7.03;;
12871;SDS011;6504;53.766;9.626;2023-08-30T02:56:48;7.00;;;6.50;;
12871;SDS011;6504;53.766;9.626;2023-08-30T02:59:17;8.00;;;7.30;;
12871;SDS011;6504;53.766;9.626;2023-08-30T03:01:45;8.00;;;7.40;;
12871;SDS011;6504;53.766;9.626;2023-08-30T03:04:13;8.47;;;7.67;;
12871;SDS011;6504;53.766;9.626;2023-08-30T03:06:42;9.30;;;8.50;;
12871;SDS011;6504;53.766;9.626;2023-08-30T03:09:10;9.13;;;8.23;;
12871;SDS011;6504;53.766;9.626;2023-08-30T03:11:38;7.77;;;7.17;;
12871;SDS011;6504;53.766;9.626;2023-08-30T03:14:06;9.73;;;8.93;;
12871;SDS011;6504;53.766;9.626;2023-08-30T03:16:35;9.70;;;8.93;;
12871;SDS011;6504;53.766;9.626;2023-08-30T03:19:03;9.77;;;8.97;;
12871;SDS011;6504;53.766;9.626;2023-08-30T03:21:31;8.80;;;8.10;;
12871;SDS011;6504;53.766;9.626;2023-08-30T03:24:00;9.77;;;8.90;;
12871;SDS011;6504;53.766;9.626;2023-08-30T03:26:28;10.40;;;9.53;;
12871;SDS011;6504;53.766;9.626;2023-08-30T03:28:56;9.73;;;9.03;;
12871;SDS011;6504;53.766;9.626;2023-08-30T03:31:25;10.17;;;9.37;;
12871;SDS011;6504;53.766;9.626;2023-08-30T03:33:53;9.93;;;9.10;;
12871;SDS011;6504;53.766;9.626;2023-08-30T03:36:21;10.37;;;9.37;;
12871;SDS011;6504;53.766;9.626;2023-08-30T03:38:49;10.83;;;9.77;;
12871;SDS011;6504;53.766;9.626;2023-08-30T03:41:18;9.63;;;8.87;;
12871;SDS011;6504;53.766;9.626;2023-08-30T03:43:46;10.30;;;9.40;;
12871;SDS011;6504;53.766;9.626;2023-08-30T03:46:14;10.10;;;9.30;;
12871;SDS011;6504;53.766;9.626;2023-08-30T03:48:42;10.43;;;9.53;;
12871;SDS011;6504;53.766;9.626;2023-08-30T03:51:10;10.57;;;9.67;;
12871;SDS011;6504;53.766;9.626;2023-08-30T03:53:39;10.13;;;9.37;;
12871;SDS011;6504;53.766;9.626;2023-08-30T03:56:07;10.80;;;9.90;;
12871;SDS011;6504;53.766;9.626;2023-08-30T03:58:36;10.87;;;9.97;;
12871;SDS011;6504;53.766;9.626;2023-08-30T04:01:05;9.90;;;9.07;;
12871;SDS011;6504;53.766;9.626;2023-08-30T04:03:34;11.73;;;10.83;;
12871;SDS011;6504;53.766;9.626;2023-08-30T04:06:02;11.53;;;10.63;;
12871;SDS011;6504;53.766;9.626;2023-08-30T04:08:31;12.50;;;11.40;;
12871;SDS011;6504;53.766;9.626;2023-08-30T04:10:59;11.40;;;10.50;;
12871;SDS011;6504;53.766;9.626;2023-08-30T04:13:27;12.73;;;11.73;;
12871;SDS011;6504;53.766;9.626;2023-08-30T04:15:56;11.60;;;10.70;;
12871;SDS011;6504;53.766;9.626;2023-08-30T04:18:25;12.20;;;11.20;;
12871;SDS011;6504;53.766;9.626;2023-08-30T04:20:53;11.57;;;10.67;;
12871;SDS011;6504;53.766;9.626;2023-08-30T04:23:21;12.20;;;11.20;;
12871;SDS011;6504;53.766;9.626;2023-08-30T04:25:49;11.13;;;10.23;;
12871;SDS011;6504;53.766;9.626;2023-08-30T04:28:18;10.90;;;10.00;;
12871;SDS011;6504;53.766;9.626;2023-08-30T04:30:46;11.20;;;10.30;;
12871;SDS011;6504;53.766;9.626;2023-08-30T04:33:15;11.97;;;10.97;;
12871;SDS011;6504;53.766;9.626;2023-08-30T04:35:43;10.97;;;10.00;;
12871;SDS011;6504;53.766;9.626;2023-08-30T04:38:11;11.73;;;10.73;;
12871;SDS011;6504;53.766;9.626;2023-08-30T04:40:39;11.00;;;10.10;;
12871;SDS011;6504;53.766;9.626;2023-08-30T04:43:08;10.83;;;9.93;;
12871;SDS011;6504;53.766;9.626;2023-08-30T04:45:36;11.83;;;10.73;;
12871;SDS011;6504;53.766;9.626;2023-08-30T04:48:05;11.27;;;10.37;;
12871;SDS011;6504;53.766;9.626;2023-08-30T04:50:36;11.27;;;10.37;;
12871;SDS011;6504;53.766;9.626;2023-08-30T04:53:04;10.07;;;9.27;;
12871;SDS011;6504;53.766;9.626;2023-08-30T04:55:32;9.47;;;8.67;;
12871;SDS011;6504;53.766;9.626;2023-08-30T04:58:00;10.70;;;9.80;;
12871;SDS011;6504;53.766;9.626;2023-08-30T05:00:28;10.77;;;9.87;;
12871;SDS011;6504;53.766;9.626;2023-08-30T05:02:57;10.50;;;9.60;;
12871;SDS011;6504;53.766;9.626;2023-08-30T05:05:25;9.60;;;8.73;;
12871;SDS011;6504;53.766;9.626;2023-08-30T05:07:55;9.93;;;9.03;;
12871;SDS011;6504;53.766;9.626;2023-08-30T05:10:23;10.63;;;9.73;;
12871;SDS011;6504;53.766;9.626;2023-08-30T05:12:51;10.10;;;9.20;;
12871;SDS011;6504;53.766;9.626;2023-08-30T05:15:19;10.73;;;9.93;;
12871;SDS011;6504;53.766;9.626;2023-08-30T05:17:47;9.60;;;8.90;;
12871;SDS011;6504;53.766;9.626;2023-08-30T05:20:15;10.00;;;9.10;;
12871;SDS011;6504;53.766;9.626;2023-08-30T05:22:43;9.50;;;8.80;;
12871;SDS011;6504;53.766;9.626;2023-08-30T05:25:12;9.77;;;8.87;;
12871;SDS011;6504;53.766;9.626;2023-08-30T05:27:41;8.70;;;7.90;;
12871;SDS011;6504;53.766;9.626;2023-08-30T05:30:10;8.47;;;7.70;;
12871;SDS011;6504;53.766;9.626;2023-08-30T05:32:39;9.70;;;8.90;;
12871;SDS011;6504;53.766;9.626;2023-08-30T05:35:07;8.93;;;8.13;;
12871;SDS011;6504;53.766;9.626;2023-08-30T05:37:35;8.77;;;8.00;;
12871;SDS011;6504;53.766;9.626;2023-08-30T05:40:04;9.20;;;8.40;;
12871;SDS011;6504;53.766;9.626;2023-08-30T05:42:35;8.10;;;7.50;;
12871;SDS011;6504;53.766;9.626;2023-08-30T05:45:04;7.77;;;7.07;;
12871;SDS011;6504;53.766;9.626;2023-08-30T05:47:32;8.63;;;7.83;;
12871;SDS011;6504;53.766;9.626;2023-08-30T05:50:00;9.33;;;8.53;;
12871;SDS011;6504;53.766;9.626;2023-08-30T05:52:29;8.07;;;7.47;;
12871;SDS011;6504;53.766;9.626;2023-08-30T05:54:57;7.87;;;7.17;;
12871;SDS011;6504;53.766;9.626;2023-08-30T05:57:25;7.73;;;6.93;;
12871;SDS011;6504;53.766;9.626;2023-08-30T05:59:56;8.67;;;7.87;;
12871;SDS011;6504;53.766;9.626;2023-08-30T06:02:24;7.13;;;6.53;;
12871;SDS011;6504;53.766;9.626;2023-08-30T06:04:53;8.13;;;7.33;;
12871;SDS011;6504;53.766;9.626;2023-08-30T06:07:21;7.60;;;6.90;;
12871;SDS011;6504;53.766;9.626;2023-08-30T06:09:50;7.07;;;6.50;;
12871;SDS011;6504;53.766;9.626;2023-08-30T06:12:20;7.17;;;6.47;;
12871;SDS011;6504;53.766;9.626;2023-08-30T06:14:48;8.50;;;7.70;;
12871;SDS011;6504;53.766;9.626;2023-08-30T06:17:20;7.83;;;7.13;;
12871;SDS011;6504;53.766;9.626;2023-08-30T06:19:48;7.87;;;7.13;;
12871;SDS011;6504;53.766;9.626;2023-08-30T06:22:16;8.70;;;7.43;;
12871;SDS011;6504;53.766;9.626;2023-08-30T06:24:44;9.40;;;8.47;;
12871;SDS011;6504;53.766;9.626;2023-08-30T06:27:12;7.17;;;6.67;;
12871;SDS011;6504;53.766;9.626;2023-08-30T06:29:40;8.27;;;7.30;;
12871;SDS011;6504;53.766;9.626;2023-08-30T06:32:08;7.40;;;6.80;;
12871;SDS011;6504;53.766;9.626;2023-08-30T06:34:38;8.83;;;8.03;;
12871;SDS011;6504;53.766;9.626;2023-08-30T06:37:06;8.67;;;7.97;;
12871;SDS011;6504;53.766;9.626;2023-08-30T06:39:35;8.07;;;7.37;;
12871;SDS011;6504;53.766;9.626;2023-08-30T06:42:03;7.60;;;7.00;;
12871;SDS011;6504;53.766;9.626;2023-08-30T06:44:32;9.40;;;8.60;;
12871;SDS011;6504;53.766;9.626;2023-08-30T06:47:00;9.97;;;8.37;;
12871;SDS011;6504;53.766;9.626;2023-08-30T06:49:28;10.13;;;8.40;;
12871;SDS011;6504;53.766;9.626;2023-08-30T06:51:59;8.53;;;7.60;;
12871;SDS011;6504;53.766;9.626;2023-08-30T06:54:29;8.30;;;7.60;;
12871;SDS011;6504;53.766;9.626;2023-08-30T06:57:00;8.27;;;7.57;;
12871;SDS011;6504;53.766;9.626;2023-08-30T06:59:28;9.50;;;7.60;;
12871;SDS011;6504;53.766;9.626;2023-08-30T07:01:57;11.40;;;7.93;;
12871;SDS011;6504;53.766;9.626;2023-08-30T07:04:25;10.17;;;9.27;;
12871;SDS011;6504;53.766;9.626;2023-08-30T07:06:53;9.30;;;8.40;;
12871;SDS011;6504;53.766;9.626;2023-08-30T07:09:22;9.10;;;8.30;;
12871;SDS011;6504;53.766;9.626;2023-08-30T07:11:55;9.80;;;8.90;;
12871;SDS011;6504;53.766;9.626;2023-08-30T07:14:23;8.90;;;8.10;;
12871;SDS011;6504;53.766;9.626;2023-08-30T07:16:52;10.70;;;9.80;;
12871;SDS011;6504;53.766;9.626;2023-08-30T07:19:20;11.13;;;10.17;;
12871;SDS011;6504;53.766;9.626;2023-08-30T07:21:49;11.57;;;10.47;;
12871;SDS011;6504;53.766;9.626;2023-08-30T07:24:17;11.63;;;10.53;;
12871;SDS011;6504;53.766;9.626;2023-08-30T07:26:46;11.70;;;10.70;;
12871;SDS011;6504;53.766;9.626;2023-08-30T07:29:14;13.53;;;12.23;;
12871;SDS011;6504;53.766;9.626;2023-08-30T07:31:42;14.03;;;12.57;;
12871;SDS011;6504;53.766;9.626;2023-08-30T07:34:10;17.60;;;13.37;;
12871;SDS011;6504;53.766;9.626;2023-08-30T07:36:39;17.93;;;12.77;;
12871;SDS011;6504;53.766;9.626;2023-08-30T07:39:13;14.57;;;13.20;;
12871;SDS011;6504;53.766;9.626;2023-08-30T07:41:42;15.10;;;13.63;;
12871;SDS011;6504;53.766;9.626;2023-08-30T07:44:11;15.60;;;14.20;;
12871;SDS011;6504;53.766;9.626;2023-08-30T07:46:39;14.27;;;12.87;;
12871;SDS011;6504;53.766;9.626;2023-08-30T07:49:07;15.83;;;14.37;;
12871;SDS011;6504;53.766;9.626;2023-08-30T07:51:35;15.03;;;13.47;;
12871;SDS011;6504;53.766;9.626;2023-08-30T07:54:03;15.97;;;14.47;;
12871;SDS011;6504;53.766;9.626;2023-08-30T07:56:32;16.17;;;14.67;;
12871;SDS011;6504;53.766;9.626;2023-08-30T07:59:00;16.00;;;14.53;;
12871;SDS011;6504;53.766;9.626;2023-08-30T08:01:29;16.77;;;15.07;;
12871;SDS011;6504;53.766;9.626;2023-08-30T08:03:57;15.37;;;14.07;;
12871;SDS011;6504;53.766;9.626;2023-08-30T08:06:33;14.80;;;13.30;;
12871;SDS011;6504;53.766;9.626;2023-08-30T08:09:03;15.13;;;13.70;;
12871;SDS011;6504;53.766;9.626;2023-08-30T08:11:32;15.60;;;14.17;;
12871;SDS011;6504;53.766;9.626;2023-08-30T08:14:00;15.33;;;14.03;;
12871;SDS011;6504;53.766;9.626;2023-08-30T08:16:30;15.60;;;14.03;;
12871;SDS011;6504;53.766;9.626;2023-08-30T08:19:00;15.47;;;13.97;;
12871;SDS011;6504;53.766;9.626;2023-08-30T08:21:29;15.30;;;13.90;;
12871;SDS011;6504;53.766;9.626;2023-08-30T08:23:57;14.27;;;13.07;;
12871;SDS011;6504;53.766;9.626;2023-08-30T08:26:25;15.57;;;14.07;;
12871;SDS011;6504;53.766;9.626;2023-08-30T08:28:53;14.70;;;13.33;;
12871;SDS011;6504;53.766;9.626;2023-08-30T08:31:22;13.73;;;12.53;;
12871;SDS011;6504;53.766;9.626;2023-08-30T08:34:05;14.97;;;13.57;;
12871;SDS011;6504;53.766;9.626;2023-08-30T08:36:34;16.13;;;14.60;;
12871;SDS011;6504;53.766;9.626;2023-08-30T08:39:02;15.03;;;13.73;;
12871;SDS011;6504;53.766;9.626;2023-08-30T08:41:34;16.37;;;15.00;;
12871;SDS011;6504;53.766;9.626;2023-08-30T08:44:05;14.27;;;12.93;;
12871;SDS011;6504;53.766;9.626;2023-08-30T08:46:34;14.80;;;13.47;;
12871;SDS011;6504;53.766;9.626;2023-08-30T08:49:07;13.67;;;12.47;;
12871;SDS011;6504;53.766;9.626;2023-08-30T08:51:38;13.63;;;12.43;;
12871;SDS011;6504;53.766;9.626;2023-08-30T08:54:06;13.13;;;11.97;;
12871;SDS011;6504;53.766;9.626;2023-08-30T08:56:36;11.77;;;10.87;;
12871;SDS011;6504;53.766;9.626;2023-08-30T08:59:05;12.10;;;11.10;;
12871;SDS011;6504;53.766;9.626;2023-08-30T09:01:35;11.87;;;10.77;;
12871;SDS011;6504;53.766;9.626;2023-08-30T09:04:08;12.50;;;11.37;;
12871;SDS011;6504;53.766;9.626;2023-08-30T09:06:37;11.97;;;10.97;;
12871;SDS011;6504;53.766;9.626;2023-08-30T09:09:07;15.93;;;11.30;;
12871;SDS011;6504;53.766;9.626;2023-08-30T09:11:36;11.30;;;10.27;;
12871;SDS011;6504;53.766;9.626;2023-08-30T09:14:17;11.70;;;9.87;;
12871;SDS011;6504;53.766;9.626;2023-08-30T09:16:53;11.10;;;8.93;;
12871;SDS011;6504;53.766;9.626;2023-08-30T09:19:24;11.23;;;10.03;;
12871;SDS011;6504;53.766;9.626;2023-08-30T09:21:52;10.37;;;9.47;;
12871;SDS011;6504;53.766;9.626;2023-08-30T09:24:20;10.40;;;9.53;;
12871;SDS011;6504;53.766;9.626;2023-08-30T09:26:49;10.53;;;9.53;;
12871;SDS011;6504;53.766;9.626;2023-08-30T09:29:20;10.17;;;9.00;;
12871;SDS011;6504;53.766;9.626;2023-08-30T09:31:50;11.40;;;10.33;;
12871;SDS011;6504;53.766;9.626;2023-08-30T09:34:22;10.80;;;9.57;;
12871;SDS011;6504;53.766;9.626;2023-08-30T09:36:52;10.20;;;9.20;;
12871;SDS011;6504;53.766;9.626;2023-08-30T09:39:21;11.57;;;10.47;;
12871;SDS011;6504;53.766;9.626;2023-08-30T09:41:50;10.00;;;9.03;;
12871;SDS011;6504;53.766;9.626;2023-08-30T09:44:19;9.60;;;8.67;;
12871;SDS011;6504;53.766;9.626;2023-08-30T09:46:49;9.13;;;8.33;;
12871;SDS011;6504;53.766;9.626;2023-08-30T09:49:20;8.30;;;7.47;;
12871;SDS011;6504;53.766;9.626;2023-08-30T09:51:50;9.73;;;7.90;;
12871;SDS011;6504;53.766;9.626;2023-08-30T09:54:20;9.20;;;8.30;;
12871;SDS011;6504;53.766;9.626;2023-08-30T09:57:05;8.07;;;7.23;;
12871;SDS011;6504;53.766;9.626;2023-08-30T09:59:34;10.33;;;7.60;;
12871;SDS011;6504;53.766;9.626;2023-08-30T10:02:04;8.10;;;7.33;;
12871;SDS011;6504;53.766;9.626;2023-08-30T10:04:33;7.20;;;6.47;;
12871;SDS011;6504;53.766;9.626;2023-08-30T10:07:06;7.87;;;7.03;;
12871;SDS011;6504;53.766;9.626;2023-08-30T10:09:36;7.73;;;7.03;;
12871;SDS011;6504;53.766;9.626;2023-08-30T10:12:20;7.67;;;6.87;;
12871;SDS011;6504;53.766;9.626;2023-08-30T10:14:49;8.50;;;7.70;;
12871;SDS011;6504;53.766;9.626;2023-08-30T10:17:18;8.40;;;7.50;;
12871;SDS011;6504;53.766;9.626;2023-08-30T10:19:48;8.10;;;7.37;;
12871;SDS011;6504;53.766;9.626;2023-08-30T10:22:20;8.73;;;7.60;;
12871;SDS011;6504;53.766;9.626;2023-08-30T10:24:49;8.10;;;7.30;;
12871;SDS011;6504;53.766;9.626;2023-08-30T10:27:41;8.37;;;7.50;;
12871;SDS011;6504;53.766;9.626;2023-08-30T10:30:12;8.43;;;7.60;;
12871;SDS011;6504;53.766;9.626;2023-08-30T10:32:42;8.20;;;7.43;;
12871;SDS011;6504;53.766;9.626;2023-08-30T10:35:12;10.17;;;8.00;;
12871;SDS011;6504;53.766;9.626;2023-08-30T10:37:53;9.27;;;7.13;;
12871;SDS011;6504;53.766;9.626;2023-08-30T10:40:22;8.80;;;7.60;;
12871;SDS011;6504;53.766;9.626;2023-08-30T10:42:59;9.53;;;7.47;;
12871;SDS011;6504;53.766;9.626;2023-08-30T10:45:28;8.83;;;7.90;;
12871;SDS011;6504;53.766;9.626;2023-08-30T10:47:57;9.87;;;7.93;;
12871;SDS011;6504;53.766;9.626;2023-08-30T10:50:29;8.70;;;7.73;;
12871;SDS011;6504;53.766;9.626;2023-08-30T10:53:01;8.67;;;7.90;;
12871;SDS011;6504;53.766;9.626;2023-08-30T10:55:32;7.70;;;6.67;;
12871;SDS011;6504;53.766;9.626;2023-08-30T10:58:00;9.17;;;8.00;;
12871;SDS011;6504;53.766;9.626;2023-08-30T11:00:30;8.47;;;7.57;;
12871;SDS011;6504;53.766;9.626;2023-08-30T11:02:59;8.50;;;7.70;;
12871;SDS011;6504;53.766;9.626;2023-08-30T11:05:29;8.47;;;7.60;;
12871;SDS011;6504;53.766;9.626;2023-08-30T11:07:57;8.80;;;7.90;;
12871;SDS011;6504;53.766;9.626;2023-08-30T11:10:27;9.27;;;7.57;;
12871;SDS011;6504;53.766;9.626;2023-08-30T11:12:55;8.47;;;7.63;;
12871;SDS011;6504;53.766;9.626;2023-08-30T11:15:23;8.73;;;7.87;;
12871;SDS011;6504;53.766;9.626;2023-08-30T11:18:01;9.13;;;8.03;;
12871;SDS011;6504;53.766;9.626;2023-08-30T11:20:30;9.27;;;8.37;;
12871;SDS011;6504;53.766;9.626;2023-08-30T11:22:58;18.53;;;9.77;;
12871;SDS011;6504;53.766;9.626;2023-08-30T11:25:30;14.67;;;9.50;;
12871;SDS011;6504;53.766;9.626;2023-08-30T11:28:02;9.03;;;8.17;;
12871;SDS011;6504;53.766;9.626;2023-08-30T11:30:30;9.00;;;8.10;;
12871;SDS011;6504;53.766;9.626;2023-08-30T11:32:58;8.97;;;8.13;;
12871;SDS011;6504;53.766;9.626;2023-08-30T11:35:26;9.50;;;8.60;;
12871;SDS011;6504;53.766;9.626;2023-08-30T11:37:54;9.40;;;8.50;;
12871;SDS011;6504;53.766;9.626;2023-08-30T11:40:22;9.40;;;8.27;;
12871;SDS011;6504;53.766;9.626;2023-08-30T11:42:53;9.70;;;8.87;;
12871;SDS011;6504;53.766;9.626;2023-08-30T11:45:22;10.40;;;9.40;;
12871;SDS011;6504;53.766;9.626;2023-08-30T11:47:50;11.93;;;9.40;;
12871;SDS011;6504;53.766;9.626;2023-08-30T11:50:19;9.80;;;9.00;;
12871;SDS011;6504;53.766;9.626;2023-08-30T11:52:51;9.50;;;8.60;;
12871;SDS011;6504;53.766;9.626;2023-08-30T11:55:19;10.60;;;9.27;;
12871;SDS011;6504;53.766;9.626;2023-08-30T11:57:48;10.00;;;9.03;;
12871;SDS011;6504;53.766;9.626;2023-08-30T12:00:19;9.27;;;8.47;;
12871;SDS011;6504;53.766;9.626;2023-08-30T12:02:48;9.53;;;8.70;;
12871;SDS011;6504;53.766;9.626;2023-08-30T12:05:16;10.17;;;9.10;;
12871;SDS011;6504;53.766;9.626;2023-08-30T12:07:45;10.70;;;9.80;;
12871;SDS011;6504;53.766;9.626;2023-08-30T12:10:13;10.13;;;9.23;;
12871;SDS011;6504;53.766;9.626;2023-08-30T12:12:45;9.80;;;8.93;;
12871;SDS011;6504;53.766;9.626;2023-08-30T12:15:14;9.23;;;8.37;;
12871;SDS011;6504;53.766;9.626;2023-08-30T12:17:44;9.37;;;8.40;;
12871;SDS011;6504;53.766;9.626;2023-08-30T12:20:15;9.53;;;8.40;;
12871;SDS011;6504;53.766;9.626;2023-08-30T12:22:47;8.13;;;7.43;;
12871;SDS011;6504;53.766;9.626;2023-08-30T12:25:17;7.73;;;6.97;;
12871;SDS011;6504;53.766;9.626;2023-08-30T12:27:46;7.90;;;7.10;;
12871;SDS011;6504;53.766;9.626;2023-08-30T12:30:15;8.23;;;7.30;;
12871;SDS011;6504;53.766;9.626;2023-08-30T12:32:45;8.00;;;7.30;;
12871;SDS011;6504;53.766;9.626;2023-08-30T12:35:15;8.53;;;7.63;;
12871;SDS011;6504;53.766;9.626;2023-08-30T12:37:43;8.57;;;7.77;;
12871;SDS011;6504;53.766;9.626;2023-08-30T12:40:11;9.63;;;7.77;;
12871;SDS011;6504;53.766;9.626;2023-08-30T12:42:40;8.60;;;7.80;;
12871;SDS011;6504;53.766;9.626;2023-08-30T12:45:08;9.30;;;8.40;;
12871;SDS011;6504;53.766;9.626;2023-08-30T12:47:36;9.10;;;8.23;;
12871;SDS011;6504;53.766;9.626;2023-08-30T12:50:06;9.53;;;8.20;;
12871;SDS011;6504;53.766;9.626;2023-08-30T12:52:35;12.67;;;8.50;;
12871;SDS011;6504;53.766;9.626;2023-08-30T12:55:04;9.77;;;8.77;;
12871;SDS011;6504;53.766;9.626;2023-08-30T12:57:32;9.27;;;8.37;;
12871;SDS011;6504;53.766;9.626;2023-08-30T13:00:00;10.23;;;9.10;;
12871;SDS011;6504;53.766;9.626;2023-08-30T13:02:29;9.23;;;8.20;;
12871;SDS011;6504;53.766;9.626;2023-08-30T13:04:57;8.97;;;8.07;;
12871;SDS011;6504;53.766;9.626;2023-08-30T13:07:27;8.67;;;7.87;;
12871;SDS011;6504;53.766;9.626;2023-08-30T13:09:55;8.43;;;7.70;;
12871;SDS011;6504;53.766;9.626;2023-08-30T13:12:23;9.33;;;8.50;;
12871;SDS011;6504;53.766;9.626;2023-08-30T13:14:51;8.77;;;7.90;;
12871;SDS011;6504;53.766;9.626;2023-08-30T13:17:19;8.27;;;7.43;;
12871;SDS011;6504;53.766;9.626;2023-08-30T13:19:47;8.00;;;6.97;;
12871;SDS011;6504;53.766;9.626;2023-08-30T13:22:15;7.37;;;6.67;;
12871;SDS011;6504;53.766;9.626;2023-08-30T13:24:45;8.47;;;6.50;;
12871;SDS011;6504;53.766;9.626;2023-08-30T13:27:14;7.70;;;7.00;;
12871;SDS011;6504;53.766;9.626;2023-08-30T13:29:42;7.23;;;6.57;;
12871;SDS011;6504;53.766;9.626;2023-08-30T13:32:10;7.80;;;7.00;;
12871;SDS011;6504;53.766;9.626;2023-08-30T13:34:39;6.73;;;6.13;;
12871;SDS011;6504;53.766;9.626;2023-08-30T13:37:10;6.77;;;6.17;;
12871;SDS011;6504;53.766;9.626;2023-08-30T13:39:38;6.87;;;6.27;;
12871;SDS011;6504;53.766;9.626;2023-08-30T13:42:07;7.23;;;6.53;;
12871;SDS011;6504;53.766;9.626;2023-08-30T13:44:36;6.73;;;6.03;;
12871;SDS011;6504;53.766;9.626;2023-08-30T13:47:04;7.60;;;6.70;;
12871;SDS011;6504;53.766;9.626;2023-08-30T13:49:32;7.23;;;6.53;;
12871;SDS011;6504;53.766;9.626;2023-08-30T13:52:00;6.80;;;6.20;;
12871;SDS011;6504;53.766;9.626;2023-08-30T13:54:31;6.70;;;6.03;;
12871;SDS011;6504;53.766;9.626;2023-08-30T13:56:59;6.03;;;5.50;;
12871;SDS011;6504;53.766;9.626;2023-08-30T13:59:28;7.23;;;6.60;;
12871;SDS011;6504;53.766;9.626;2023-08-30T14:01:57;7.30;;;5.97;;
12871;SDS011;6504;53.766;9.626;2023-08-30T14:04:25;6.90;;;6.30;;
12871;SDS011;6504;53.766;9.626;2023-08-30T14:06:53;6.43;;;5.93;;
12871;SDS011;6504;53.766;9.626;2023-08-30T14:09:21;7.07;;;6.33;;
12871;SDS011;6504;53.766;9.626;2023-08-30T14:11:49;6.93;;;6.33;;
12871;SDS011;6504;53.766;9.626;2023-08-30T14:14:17;6.90;;;6.30;;
12871;SDS011;6504;53.766;9.626;2023-08-30T14:16:46;7.60;;;6.80;;
12871;SDS011;6504;53.766;9.626;2023-08-30T14:19:15;7.87;;;6.90;;
12871;SDS011;6504;53.766;9.626;2023-08-30T14:21:44;6.70;;;6.00;;
12871;SDS011;6504;53.766;9.626;2023-08-30T14:24:12;7.40;;;6.70;;
12871;SDS011;6504;53.766;9.626;2023-08-30T14:26:40;7.20;;;6.30;;
12871;SDS011;6504;53.766;9.626;2023-08-30T14:29:08;7.33;;;6.73;;
12871;SDS011;6504;53.766;9.626;2023-08-30T14:31:36;8.30;;;7.50;;
12871;SDS011;6504;53.766;9.626;2023-08-30T14:34:05;7.87;;;7.10;;
12871;SDS011;6504;53.766;9.626;2023-08-30T14:36:34;8.60;;;7.80;;
12871;SDS011;6504;53.766;9.626;2023-08-30T14:39:02;8.43;;;7.63;;
12871;SDS011;6504;53.766;9.626;2023-08-30T14:41:31;8.53;;;7.73;;
12871;SDS011;6504;53.766;9.626;2023-08-30T14:44:02;8.50;;;7.80;;
12871;SDS011;6504;53.766;9.626;2023-08-30T14:46:30;8.93;;;8.13;;
12871;SDS011;6504;53.766;9.626;2023-08-30T14:48:58;8.33;;;7.60;;
12871;SDS011;6504;53.766;9.626;2023-08-30T14:51:28;8.50;;;7.67;;
12871;SDS011;6504;53.766;9.626;2023-08-30T14:53:56;9.60;;;7.70;;
12871;SDS011;6504;53.766;9.626;2023-08-30T14:56:24;7.70;;;7.00;;
12871;SDS011;6504;53.766;9.626;2023-08-30T14:58:52;8.67;;;7.87;;
12871;SDS011;6504;53.766;9.626;2023-08-30T15:01:20;9.70;;;7.97;;
12871;SDS011;6504;53.766;9.626;2023-08-30T15:03:48;9.07;;;8.37;;
12871;SDS011;6504;53.766;9.626;2023-08-30T15:06:17;10.27;;;9.37;;
12871;SDS011;6504;53.766;9.626;2023-08-30T15:08:46;8.13;;;7.53;;